<?xml version="1.0" encoding="UTF-8" standalone="no" ?>
<gpx xmlns="http://www.topografix.com/GPX/1/1" xmlns:xsi="http://www.w3.org/2001/XMLSchema-instance" xsi:schemaLocation="http://www.topografix.com/GPX/1/1 http://www.topografix.com/GPX/1/1/gpx.xsd" version="1.1" creator="VisuGPX - https://www.visugpx.com">
  <metadata>
    <name>2017-11-19 Hohenbourg_Loewenstein _Gimbelhof Wingen (repas auberge)</name>
    <desc><![CDATA[2017-11-19 Randonnée de Christian avec repas du midi dans une auberge.]]></desc>
  </metadata>
  <trk>
    <name><![CDATA[OR-8036139--Nothweiler:2017-11-19]]></name>
    <trkseg>
      <trkpt lat="49.05325" lon="7.79343">
        <ele>345</ele>
        <time>2017-10-22T11:09:30Z</time>
      </trkpt>
      <trkpt lat="49.05328" lon="7.79171">
        <ele>352</ele>
        <time>2017-10-22T11:11:30Z</time>
      </trkpt>
      <trkpt lat="49.05306" lon="7.79103">
        <ele>361</ele>
        <time>2017-10-22T11:13:30Z</time>
      </trkpt>
      <trkpt lat="49.05259" lon="7.79049">
        <ele>372</ele>
        <time>2017-10-22T11:15:30Z</time>
      </trkpt>
      <trkpt lat="49.05166" lon="7.78959">
        <ele>381</ele>
        <time>2017-10-22T11:17:30Z</time>
      </trkpt>
      <trkpt lat="49.05058" lon="7.78787">
        <ele>405</ele>
        <time>2017-10-22T11:19:30Z</time>
      </trkpt>
      <trkpt lat="49.05054" lon="7.78716">
        <ele>411</ele>
        <time>2017-10-22T11:21:30Z</time>
      </trkpt>
      <trkpt lat="49.05092" lon="7.78656">
        <ele>425</ele>
        <time>2017-10-22T11:23:30Z</time>
      </trkpt>
      <trkpt lat="49.05159" lon="7.78586">
        <ele>440</ele>
        <time>2017-10-22T11:25:30Z</time>
      </trkpt>
      <trkpt lat="49.05239" lon="7.78506">
        <ele>446</ele>
        <time>2017-10-22T11:27:30Z</time>
      </trkpt>
      <trkpt lat="49.05292" lon="7.7845">
        <ele>452</ele>
        <time>2017-10-22T11:29:30Z</time>
      </trkpt>
      <trkpt lat="49.05341" lon="7.78392">
        <ele>461</ele>
        <time>2017-10-22T11:31:30Z</time>
      </trkpt>
      <trkpt lat="49.05379" lon="7.78324">
        <ele>467</ele>
        <time>2017-10-22T11:33:30Z</time>
      </trkpt>
      <trkpt lat="49.05412" lon="7.78251">
        <ele>471</ele>
        <time>2017-10-22T11:35:30Z</time>
      </trkpt>
      <trkpt lat="49.05457" lon="7.78141">
        <ele>472</ele>
        <time>2017-10-22T11:37:30Z</time>
      </trkpt>
      <trkpt lat="49.05481" lon="7.78133">
        <ele>474</ele>
        <time>2017-10-22T11:39:30Z</time>
      </trkpt>
      <trkpt lat="49.05497" lon="7.78165">
        <ele>482</ele>
        <time>2017-10-22T11:41:30Z</time>
      </trkpt>
      <trkpt lat="49.05598" lon="7.78266">
        <ele>497</ele>
        <time>2017-10-22T11:43:30Z</time>
      </trkpt>
      <trkpt lat="49.05744" lon="7.78382">
        <ele>500</ele>
        <time>2017-10-22T11:45:30Z</time>
      </trkpt>
      <trkpt lat="49.05583" lon="7.78345">
        <ele>527</ele>
        <time>2017-10-22T11:47:30Z</time>
      </trkpt>
      <trkpt lat="49.05535" lon="7.78371">
        <ele>532</ele>
        <time>2017-10-22T11:49:30Z</time>
      </trkpt>
      <trkpt lat="49.05509" lon="7.78425">
        <ele>540</ele>
        <time>2017-10-22T11:51:30Z</time>
      </trkpt>
      <trkpt lat="49.05494" lon="7.78483">
        <ele>535</ele>
        <time>2017-10-22T11:53:30Z</time>
      </trkpt>
      <trkpt lat="49.05485" lon="7.78503">
        <ele>533</ele>
        <time>2017-10-22T11:55:30Z</time>
      </trkpt>
      <trkpt lat="49.0546" lon="7.78524">
        <ele>527</ele>
        <time>2017-10-22T11:57:30Z</time>
      </trkpt>
      <trkpt lat="49.05434" lon="7.78533">
        <ele>524</ele>
        <time>2017-10-22T11:59:30Z</time>
      </trkpt>
      <trkpt lat="49.05391" lon="7.78575">
        <ele>523</ele>
        <time>2017-10-22T12:01:30Z</time>
      </trkpt>
      <trkpt lat="49.05337" lon="7.78614">
        <ele>516</ele>
        <time>2017-10-22T12:03:30Z</time>
      </trkpt>
      <trkpt lat="49.05316" lon="7.78629">
        <ele>509</ele>
        <time>2017-10-22T12:05:30Z</time>
      </trkpt>
      <trkpt lat="49.05324" lon="7.78602">
        <ele>512</ele>
        <time>2017-10-22T12:07:30Z</time>
      </trkpt>
      <trkpt lat="49.05344" lon="7.78586">
        <ele>517</ele>
        <time>2017-10-22T12:09:30Z</time>
      </trkpt>
      <trkpt lat="49.05366" lon="7.78549">
        <ele>512</ele>
        <time>2017-10-22T12:11:30Z</time>
      </trkpt>
      <trkpt lat="49.05389" lon="7.78515">
        <ele>511</ele>
        <time>2017-10-22T12:13:30Z</time>
      </trkpt>
      <trkpt lat="49.05412" lon="7.78474">
        <ele>513</ele>
        <time>2017-10-22T12:15:30Z</time>
      </trkpt>
      <trkpt lat="49.05427" lon="7.78423">
        <ele>511</ele>
        <time>2017-10-22T12:17:30Z</time>
      </trkpt>
      <trkpt lat="49.05434" lon="7.78349">
        <ele>500</ele>
        <time>2017-10-22T12:19:30Z</time>
      </trkpt>
      <trkpt lat="49.05459" lon="7.7827">
        <ele>493</ele>
        <time>2017-10-22T12:21:30Z</time>
      </trkpt>
      <trkpt lat="49.05477" lon="7.78152">
        <ele>476</ele>
        <time>2017-10-22T12:23:30Z</time>
      </trkpt>
      <trkpt lat="49.05457" lon="7.78098">
        <ele>469</ele>
        <time>2017-10-22T12:25:30Z</time>
      </trkpt>
      <trkpt lat="49.05398" lon="7.78055">
        <ele>461</ele>
        <time>2017-10-22T12:27:30Z</time>
      </trkpt>
      <trkpt lat="49.05301" lon="7.7795">
        <ele>444</ele>
        <time>2017-10-22T12:29:30Z</time>
      </trkpt>
      <trkpt lat="49.05192" lon="7.77858">
        <ele>425</ele>
        <time>2017-10-22T12:31:30Z</time>
      </trkpt>
      <trkpt lat="49.05082" lon="7.77766">
        <ele>418</ele>
        <time>2017-10-22T12:33:30Z</time>
      </trkpt>
      <trkpt lat="49.04957" lon="7.77646">
        <ele>403</ele>
        <time>2017-10-22T12:35:30Z</time>
      </trkpt>
      <trkpt lat="49.04796" lon="7.77525">
        <ele>363</ele>
        <time>2017-10-22T12:37:30Z</time>
      </trkpt>
      <trkpt lat="49.04737" lon="7.77455">
        <ele>345</ele>
        <time>2017-10-22T12:39:30Z</time>
      </trkpt>
      <trkpt lat="49.04746" lon="7.77613">
        <ele>348</ele>
        <time>2017-10-22T12:41:30Z</time>
      </trkpt>
      <trkpt lat="49.04929" lon="7.78008">
        <ele>328</ele>
        <time>2017-10-22T12:43:30Z</time>
      </trkpt>
      <trkpt lat="49.04923" lon="7.78227">
        <ele>322</ele>
        <time>2017-10-22T12:45:30Z</time>
      </trkpt>
      <trkpt lat="49.04844" lon="7.78309">
        <ele>327</ele>
        <time>2017-10-22T12:47:30Z</time>
      </trkpt>
      <trkpt lat="49.04811" lon="7.78467">
        <ele>341</ele>
        <time>2017-10-22T12:49:30Z</time>
      </trkpt>
      <trkpt lat="49.04704" lon="7.78639">
        <ele>344</ele>
        <time>2017-10-22T12:51:30Z</time>
      </trkpt>
      <trkpt lat="49.04631" lon="7.78682">
        <ele>356</ele>
        <time>2017-10-22T12:53:30Z</time>
      </trkpt>
      <trkpt lat="49.04653" lon="7.78652">
        <ele>349</ele>
        <time>2017-10-22T12:55:30Z</time>
      </trkpt>
      <trkpt lat="49.04647" lon="7.78712">
        <ele>351</ele>
        <time>2017-10-22T12:57:30Z</time>
      </trkpt>
      <trkpt lat="49.04661" lon="7.78794">
        <ele>341</ele>
        <time>2017-10-22T12:59:30Z</time>
      </trkpt>
      <trkpt lat="49.04735" lon="7.78892">
        <ele>334</ele>
        <time>2017-10-22T13:01:30Z</time>
      </trkpt>
      <trkpt lat="49.04684" lon="7.7891">
        <ele>321</ele>
        <time>2017-10-22T13:03:30Z</time>
      </trkpt>
      <trkpt lat="49.04698" lon="7.78937">
        <ele>318</ele>
        <time>2017-10-22T13:05:30Z</time>
      </trkpt>
      <trkpt lat="49.04304" lon="7.7904">
        <ele>298</ele>
        <time>2017-10-22T13:07:30Z</time>
      </trkpt>
      <trkpt lat="49.04189" lon="7.79013">
        <ele>289</ele>
        <time>2017-10-22T13:09:30Z</time>
      </trkpt>
      <trkpt lat="49.03837" lon="7.79133">
        <ele>348</ele>
        <time>2017-10-22T13:11:30Z</time>
      </trkpt>
      <trkpt lat="49.03742" lon="7.79167">
        <ele>348</ele>
        <time>2017-10-22T13:13:30Z</time>
      </trkpt>
      <trkpt lat="49.03677" lon="7.79261">
        <ele>370</ele>
        <time>2017-10-22T13:15:30Z</time>
      </trkpt>
      <trkpt lat="49.03542" lon="7.79073">
        <ele>370</ele>
        <time>2017-10-22T13:17:30Z</time>
      </trkpt>
      <trkpt lat="49.03317" lon="7.78807">
        <ele>378</ele>
        <time>2017-10-22T13:19:30Z</time>
      </trkpt>
      <trkpt lat="49.03335" lon="7.78967">
        <ele>396</ele>
        <time>2017-10-22T13:21:30Z</time>
      </trkpt>
      <trkpt lat="49.03388" lon="7.79133">
        <ele>406</ele>
        <time>2017-10-22T13:23:30Z</time>
      </trkpt>
      <trkpt lat="49.03494" lon="7.79219">
        <ele>418</ele>
        <time>2017-10-22T13:25:30Z</time>
      </trkpt>
      <trkpt lat="49.03521" lon="7.79279">
        <ele>422</ele>
        <time>2017-10-22T13:27:30Z</time>
      </trkpt>
      <trkpt lat="49.03554" lon="7.79369">
        <ele>429</ele>
        <time>2017-10-22T13:29:30Z</time>
      </trkpt>
      <trkpt lat="49.03592" lon="7.79448">
        <ele>439</ele>
        <time>2017-10-22T13:31:30Z</time>
      </trkpt>
      <trkpt lat="49.03687" lon="7.79568">
        <ele>450</ele>
        <time>2017-10-22T13:33:30Z</time>
      </trkpt>
      <trkpt lat="49.0375" lon="7.79697">
        <ele>457</ele>
        <time>2017-10-22T13:35:30Z</time>
      </trkpt>
      <trkpt lat="49.03863" lon="7.79871">
        <ele>452</ele>
        <time>2017-10-22T13:37:30Z</time>
      </trkpt>
      <trkpt lat="49.03848" lon="7.79961">
        <ele>442</ele>
        <time>2017-10-22T13:39:30Z</time>
      </trkpt>
      <trkpt lat="49.03778" lon="7.80145">
        <ele>423</ele>
        <time>2017-10-22T13:41:30Z</time>
      </trkpt>
      <trkpt lat="49.03685" lon="7.80214">
        <ele>418</ele>
        <time>2017-10-22T13:43:30Z</time>
      </trkpt>
      <trkpt lat="49.03652" lon="7.8036">
        <ele>413</ele>
        <time>2017-10-22T13:45:30Z</time>
      </trkpt>
      <trkpt lat="49.03626" lon="7.80536">
        <ele>403</ele>
        <time>2017-10-22T13:47:30Z</time>
      </trkpt>
      <trkpt lat="49.03592" lon="7.80699">
        <ele>389</ele>
        <time>2017-10-22T13:49:30Z</time>
      </trkpt>
      <trkpt lat="49.03505" lon="7.80892">
        <ele>375</ele>
        <time>2017-10-22T13:51:30Z</time>
      </trkpt>
      <trkpt lat="49.03356" lon="7.8106">
        <ele>365</ele>
        <time>2017-10-22T13:53:30Z</time>
      </trkpt>
      <trkpt lat="49.0317" lon="7.8124">
        <ele>338</ele>
        <time>2017-10-22T13:55:30Z</time>
      </trkpt>
      <trkpt lat="49.03148" lon="7.81334">
        <ele>336</ele>
        <time>2017-10-22T13:57:30Z</time>
      </trkpt>
      <trkpt lat="49.03058" lon="7.81407">
        <ele>317</ele>
        <time>2017-10-22T13:59:30Z</time>
      </trkpt>
      <trkpt lat="49.03092" lon="7.8148">
        <ele>318</ele>
        <time>2017-10-22T14:01:30Z</time>
      </trkpt>
      <trkpt lat="49.02979" lon="7.81579">
        <ele>295</ele>
        <time>2017-10-22T14:03:30Z</time>
      </trkpt>
      <trkpt lat="49.02852" lon="7.8169">
        <ele>291</ele>
        <time>2017-10-22T14:05:30Z</time>
      </trkpt>
      <trkpt lat="49.02782" lon="7.81712">
        <ele>288</ele>
        <time>2017-10-22T14:07:30Z</time>
      </trkpt>
      <trkpt lat="49.02605" lon="7.81678">
        <ele>274</ele>
        <time>2017-10-22T14:09:30Z</time>
      </trkpt>
      <trkpt lat="49.0257" lon="7.81528">
        <ele>272</ele>
        <time>2017-10-22T14:11:30Z</time>
      </trkpt>
      <trkpt lat="49.02596" lon="7.81793">
        <ele>278</ele>
        <time>2017-10-22T14:13:30Z</time>
      </trkpt>
      <trkpt lat="49.02563" lon="7.81914">
        <ele>285</ele>
        <time>2017-10-22T14:15:30Z</time>
      </trkpt>
      <trkpt lat="49.0257" lon="7.81972">
        <ele>285</ele>
        <time>2017-10-22T14:17:30Z</time>
      </trkpt>
      <trkpt lat="49.02582" lon="7.8207">
        <ele>281</ele>
        <time>2017-10-22T14:19:30Z</time>
      </trkpt>
      <trkpt lat="49.02654" lon="7.82128">
        <ele>276</ele>
        <time>2017-10-22T14:21:30Z</time>
      </trkpt>
      <trkpt lat="49.02705" lon="7.82223">
        <ele>270</ele>
        <time>2017-10-22T14:23:30Z</time>
      </trkpt>
      <trkpt lat="49.02762" lon="7.82407">
        <ele>258</ele>
        <time>2017-10-22T14:25:30Z</time>
      </trkpt>
      <trkpt lat="49.02796" lon="7.82544">
        <ele>258</ele>
        <time>2017-10-22T14:27:30Z</time>
      </trkpt>
      <trkpt lat="49.02843" lon="7.82587">
        <ele>258</ele>
        <time>2017-10-22T14:29:30Z</time>
      </trkpt>
      <trkpt lat="49.02896" lon="7.82579">
        <ele>261</ele>
        <time>2017-10-22T14:31:30Z</time>
      </trkpt>
      <trkpt lat="49.02944" lon="7.82551">
        <ele>266</ele>
        <time>2017-10-22T14:33:30Z</time>
      </trkpt>
      <trkpt lat="49.02979" lon="7.82508">
        <ele>269</ele>
        <time>2017-10-22T14:35:30Z</time>
      </trkpt>
      <trkpt lat="49.03056" lon="7.82384">
        <ele>271</ele>
        <time>2017-10-22T14:37:30Z</time>
      </trkpt>
      <trkpt lat="49.03086" lon="7.82321">
        <ele>268</ele>
        <time>2017-10-22T14:39:30Z</time>
      </trkpt>
      <trkpt lat="49.03151" lon="7.823">
        <ele>268</ele>
        <time>2017-10-22T14:41:30Z</time>
      </trkpt>
      <trkpt lat="49.03235" lon="7.82321">
        <ele>267</ele>
        <time>2017-10-22T14:43:30Z</time>
      </trkpt>
      <trkpt lat="49.03362" lon="7.82197">
        <ele>270</ele>
        <time>2017-10-22T14:45:30Z</time>
      </trkpt>
      <trkpt lat="49.03426" lon="7.82154">
        <ele>274</ele>
        <time>2017-10-22T14:47:30Z</time>
      </trkpt>
      <trkpt lat="49.03491" lon="7.81982">
        <ele>286</ele>
        <time>2017-10-22T14:49:30Z</time>
      </trkpt>
      <trkpt lat="49.03595" lon="7.81746">
        <ele>292</ele>
        <time>2017-10-22T14:51:30Z</time>
      </trkpt>
      <trkpt lat="49.03708" lon="7.81682">
        <ele>298</ele>
        <time>2017-10-22T14:53:30Z</time>
      </trkpt>
      <trkpt lat="49.03798" lon="7.81648">
        <ele>302</ele>
        <time>2017-10-22T14:55:30Z</time>
      </trkpt>
      <trkpt lat="49.03893" lon="7.81656">
        <ele>297</ele>
        <time>2017-10-22T14:57:30Z</time>
      </trkpt>
      <trkpt lat="49.04103" lon="7.8139">
        <ele>295</ele>
        <time>2017-10-22T14:59:30Z</time>
      </trkpt>
      <trkpt lat="49.04179" lon="7.81358">
        <ele>302</ele>
        <time>2017-10-22T15:01:30Z</time>
      </trkpt>
      <trkpt lat="49.04275" lon="7.81379">
        <ele>302</ele>
        <time>2017-10-22T15:03:30Z</time>
      </trkpt>
      <trkpt lat="49.04311" lon="7.81349">
        <ele>303</ele>
        <time>2017-10-22T15:05:30Z</time>
      </trkpt>
      <trkpt lat="49.04366" lon="7.81308">
        <ele>314</ele>
        <time>2017-10-22T15:07:30Z</time>
      </trkpt>
      <trkpt lat="49.04555" lon="7.81308">
        <ele>315</ele>
        <time>2017-10-22T15:09:30Z</time>
      </trkpt>
      <trkpt lat="49.0459" lon="7.81304">
        <ele>313</ele>
        <time>2017-10-22T15:11:30Z</time>
      </trkpt>
      <trkpt lat="49.04648" lon="7.81274">
        <ele>317</ele>
        <time>2017-10-22T15:13:30Z</time>
      </trkpt>
      <trkpt lat="49.04699" lon="7.81289">
        <ele>316</ele>
        <time>2017-10-22T15:15:30Z</time>
      </trkpt>
      <trkpt lat="49.04821" lon="7.81259">
        <ele>322</ele>
        <time>2017-10-22T15:17:30Z</time>
      </trkpt>
      <trkpt lat="49.04866" lon="7.81253">
        <ele>319</ele>
        <time>2017-10-22T15:19:30Z</time>
      </trkpt>
      <trkpt lat="49.04903" lon="7.81231">
        <ele>319</ele>
        <time>2017-10-22T15:21:30Z</time>
      </trkpt>
      <trkpt lat="49.04927" lon="7.81204">
        <ele>323</ele>
        <time>2017-10-22T15:23:30Z</time>
      </trkpt>
      <trkpt lat="49.04955" lon="7.81158">
        <ele>330</ele>
        <time>2017-10-22T15:25:30Z</time>
      </trkpt>
      <trkpt lat="49.04984" lon="7.81144">
        <ele>329</ele>
        <time>2017-10-22T15:27:30Z</time>
      </trkpt>
      <trkpt lat="49.04991" lon="7.81118">
        <ele>328</ele>
        <time>2017-10-22T15:29:30Z</time>
      </trkpt>
      <trkpt lat="49.05014" lon="7.8106">
        <ele>331</ele>
        <time>2017-10-22T15:31:30Z</time>
      </trkpt>
      <trkpt lat="49.05085" lon="7.80943">
        <ele>333</ele>
        <time>2017-10-22T15:33:30Z</time>
      </trkpt>
      <trkpt lat="49.05155" lon="7.80824">
        <ele>328</ele>
        <time>2017-10-22T15:35:30Z</time>
      </trkpt>
      <trkpt lat="49.0519" lon="7.80752">
        <ele>329</ele>
        <time>2017-10-22T15:37:30Z</time>
      </trkpt>
      <trkpt lat="49.0521" lon="7.80442">
        <ele>342</ele>
        <time>2017-10-22T15:39:30Z</time>
      </trkpt>
      <trkpt lat="49.05263" lon="7.80279">
        <ele>332</ele>
        <time>2017-10-22T15:41:30Z</time>
      </trkpt>
      <trkpt lat="49.05317" lon="7.80122">
        <ele>339</ele>
        <time>2017-10-22T15:43:30Z</time>
      </trkpt>
      <trkpt lat="49.0537" lon="7.79965">
        <ele>350</ele>
        <time>2017-10-22T15:45:30Z</time>
      </trkpt>
      <trkpt lat="49.05429" lon="7.79852">
        <ele>348</ele>
        <time>2017-10-22T15:47:30Z</time>
      </trkpt>
      <trkpt lat="49.05376" lon="7.79566">
        <ele>351</ele>
        <time>2017-10-22T15:49:30Z</time>
      </trkpt>
      <trkpt lat="49.05341" lon="7.79403">
        <ele>346</ele>
        <time>2017-10-22T15:51:30Z</time>
      </trkpt>
    </trkseg>
  </trk>
</gpx>